createdAt,value
2018-12-08T00:02:21.744Z,7.20
2018-12-08T00:04:50.616Z,7.10
2018-12-08T00:07:19.243Z,7.10
2018-12-08T00:09:47.824Z,7.10
2018-12-08T00:12:16.392Z,7.10
2018-12-08T00:14:44.979Z,7.10
2018-12-08T00:17:14.040Z,7.00
2018-12-08T00:19:42.640Z,7.00
2018-12-08T00:22:11.221Z,7.00
2018-12-08T00:24:39.813Z,6.90
2018-12-08T00:27:08.376Z,7.00
2018-12-08T00:29:36.963Z,6.90
2018-12-08T00:32:05.527Z,6.80
2018-12-08T00:34:34.103Z,6.80
2018-12-08T00:37:02.739Z,6.80
2018-12-08T00:39:31.387Z,6.70
2018-12-08T00:41:59.953Z,6.80
2018-12-08T00:44:28.547Z,6.70
2018-12-08T00:46:57.116Z,6.70
2018-12-08T00:49:25.700Z,6.60
2018-12-08T00:51:54.319Z,6.60
2018-12-08T00:54:22.976Z,6.60
2018-12-08T00:56:51.583Z,6.50
2018-12-08T00:59:20.176Z,6.50
2018-12-08T01:01:48.740Z,6.50
2018-12-08T01:04:23.762Z,6.50
2018-12-08T01:06:59.527Z,6.50
2018-12-08T01:09:28.217Z,6.50
2018-12-08T01:11:56.808Z,6.40
2018-12-08T01:14:25.423Z,6.40
2018-12-08T01:16:53.991Z,6.40
2018-12-08T01:19:22.548Z,6.40
2018-12-08T01:21:51.130Z,6.50
2018-12-08T01:24:19.688Z,6.50
2018-12-08T01:26:48.283Z,6.40
2018-12-08T01:29:16.899Z,6.50
2018-12-08T01:31:45.484Z,6.40
2018-12-08T01:34:14.075Z,6.40
2018-12-08T01:36:42.693Z,6.30
2018-12-08T01:39:11.284Z,6.30
2018-12-08T01:41:39.879Z,6.20
2018-12-08T01:44:08.438Z,6.20
2018-12-08T01:46:37.030Z,6.20
2018-12-08T01:49:05.735Z,6.10
2018-12-08T01:51:34.380Z,6.10
2018-12-08T01:54:02.982Z,6.10
2018-12-08T01:56:31.606Z,6.00
2018-12-08T01:59:00.228Z,6.10
2018-12-08T02:01:28.851Z,6.00
2018-12-08T02:03:57.448Z,6.00
2018-12-08T02:06:26.080Z,5.90
2018-12-08T02:08:54.663Z,5.90
2018-12-08T02:11:25.067Z,5.80
2018-12-08T02:13:53.871Z,5.80
2018-12-08T02:16:22.508Z,5.80
2018-12-08T02:18:51.115Z,5.90
2018-12-08T02:21:19.727Z,5.90
2018-12-08T02:23:48.312Z,5.80
2018-12-08T02:26:16.939Z,5.90
2018-12-08T02:28:46.512Z,5.90
2018-12-08T02:31:15.130Z,5.90
2018-12-08T02:33:43.837Z,5.80
2018-12-08T02:36:12.457Z,5.70
2018-12-08T02:38:42.185Z,5.60
2018-12-08T02:41:11.027Z,5.60
2018-12-08T02:43:39.603Z,5.50
2018-12-08T02:46:08.594Z,5.40
2018-12-08T02:48:37.148Z,5.40
2018-12-08T02:51:05.764Z,5.30
2018-12-08T02:53:34.355Z,5.30
2018-12-08T02:56:02.996Z,5.40
2018-12-08T02:58:31.633Z,5.40
2018-12-08T03:01:00.266Z,5.50
2018-12-08T03:03:28.901Z,5.40
2018-12-08T03:05:57.515Z,5.50
2018-12-08T03:08:26.092Z,5.50
2018-12-08T03:10:54.931Z,5.50
2018-12-08T03:13:23.555Z,5.50
2018-12-08T03:15:52.263Z,5.50
2018-12-08T03:18:20.811Z,5.50
2018-12-08T03:20:49.438Z,5.40
2018-12-08T03:23:17.969Z,5.40
2018-12-08T03:25:46.563Z,5.40
2018-12-08T03:28:15.131Z,5.40
2018-12-08T03:30:45.399Z,5.40
2018-12-08T03:33:14.190Z,5.50
2018-12-08T03:35:42.862Z,5.50
2018-12-08T03:38:11.414Z,5.50
2018-12-08T03:40:39.997Z,5.50
2018-12-08T03:43:08.579Z,5.50
2018-12-08T03:45:37.134Z,5.50
2018-12-08T03:48:05.732Z,5.50
2018-12-08T03:50:34.513Z,5.50
2018-12-08T03:53:03.141Z,5.60
2018-12-08T03:55:31.695Z,5.60
2018-12-08T03:58:00.280Z,5.70
2018-12-08T04:00:28.866Z,5.70
2018-12-08T04:02:57.629Z,5.60
2018-12-08T04:05:26.233Z,5.50
2018-12-08T04:07:54.851Z,5.50
2018-12-08T04:10:23.424Z,5.50
2018-12-08T04:12:52.095Z,5.50
2018-12-08T04:15:20.704Z,5.50
2018-12-08T04:17:49.296Z,5.50
2018-12-08T04:20:18.043Z,5.50
2018-12-08T04:22:47.110Z,5.50
2018-12-08T04:25:15.730Z,5.40
2018-12-08T04:27:44.328Z,5.40
2018-12-08T04:30:13.212Z,5.40
2018-12-08T04:32:41.772Z,5.40
2018-12-08T04:35:10.810Z,5.40
2018-12-08T04:37:39.395Z,5.50
2018-12-08T04:40:08.283Z,5.50
2018-12-08T04:42:36.895Z,5.50
2018-12-08T04:45:06.159Z,5.50
2018-12-08T04:47:35.402Z,5.60
2018-12-08T04:50:04.479Z,5.60
2018-12-08T04:52:33.063Z,5.60
2018-12-08T04:55:01.624Z,5.60
2018-12-08T04:57:30.211Z,5.50
2018-12-08T04:59:58.767Z,5.40
2018-12-08T05:02:27.355Z,5.40
2018-12-08T05:04:55.977Z,5.50
2018-12-08T05:07:25.057Z,5.60
2018-12-08T05:09:53.653Z,5.60
2018-12-08T05:12:22.251Z,5.70
2018-12-08T05:14:50.892Z,5.60
2018-12-08T05:17:19.489Z,5.50
2018-12-08T05:19:48.091Z,5.60
2018-12-08T05:22:16.708Z,5.50
2018-12-08T05:24:45.283Z,5.40
2018-12-08T05:27:13.915Z,5.40
2018-12-08T05:29:42.515Z,5.40
2018-12-08T05:32:11.140Z,5.40
2018-12-08T05:34:39.692Z,5.40
2018-12-08T05:37:08.268Z,5.30
2018-12-08T05:39:36.860Z,5.30
2018-12-08T05:42:05.466Z,5.30
2018-12-08T05:44:34.047Z,5.30
2018-12-08T05:47:04.267Z,5.30
2018-12-08T05:49:32.927Z,5.20
2018-12-08T05:52:01.476Z,5.20
2018-12-08T05:54:30.192Z,5.20
2018-12-08T05:56:59.253Z,5.10
2018-12-08T05:59:27.800Z,5.00
2018-12-08T06:01:56.408Z,4.90
2018-12-08T06:04:24.951Z,4.90
2018-12-08T06:06:53.777Z,4.80
2018-12-08T06:09:22.472Z,4.80
2018-12-08T06:11:51.223Z,4.70
2018-12-08T06:14:19.859Z,4.80
2018-12-08T06:16:48.498Z,4.80
2018-12-08T06:19:17.088Z,4.70
2018-12-08T06:21:45.665Z,4.80
2018-12-08T06:24:14.324Z,4.70
2018-12-08T06:26:49.676Z,4.60
2018-12-08T06:29:18.912Z,4.60
2018-12-08T06:31:47.527Z,4.60
2018-12-08T06:34:16.151Z,4.60
2018-12-08T06:36:44.888Z,4.60
2018-12-08T06:39:13.538Z,4.60
2018-12-08T06:41:42.702Z,4.60
2018-12-08T06:44:11.288Z,4.60
2018-12-08T06:46:39.885Z,4.70
2018-12-08T06:49:08.519Z,4.80
2018-12-08T06:51:37.144Z,4.80
2018-12-08T06:54:05.760Z,4.80
2018-12-08T06:56:34.365Z,4.80
2018-12-08T06:59:03.507Z,4.90
2018-12-08T07:01:32.108Z,4.90
2018-12-08T07:04:00.845Z,5.00
2018-12-08T07:06:29.505Z,5.00
2018-12-08T07:08:58.185Z,5.10
2018-12-08T07:11:26.821Z,5.10
2018-12-08T07:13:55.485Z,5.20
2018-12-08T07:16:24.127Z,5.20
2018-12-08T07:18:52.723Z,5.30
2018-12-08T07:21:21.325Z,5.20
2018-12-08T07:23:49.931Z,5.20
2018-12-08T07:26:18.512Z,5.20
2018-12-08T07:28:47.105Z,5.30
2018-12-08T07:31:15.831Z,5.30
2018-12-08T07:33:44.430Z,5.30
2018-12-08T07:36:13.003Z,5.30
2018-12-08T07:38:41.581Z,5.30
2018-12-08T07:41:10.242Z,5.40
2018-12-08T07:43:38.879Z,5.40
2018-12-08T07:46:07.481Z,5.40
2018-12-08T07:48:36.203Z,5.50
2018-12-08T07:51:04.881Z,5.50
2018-12-08T07:53:33.592Z,5.50
2018-12-08T07:56:02.254Z,5.50
2018-12-08T07:58:30.827Z,5.60
2018-12-08T08:00:59.481Z,5.60
2018-12-08T08:03:28.073Z,5.60
2018-12-08T08:05:56.712Z,5.70
2018-12-08T08:08:25.353Z,5.70
2018-12-08T08:10:53.941Z,5.70
2018-12-08T08:13:22.523Z,5.70
2018-12-08T08:15:51.098Z,5.70
2018-12-08T08:18:19.724Z,5.80
2018-12-08T08:20:48.412Z,5.90
2018-12-08T08:23:17.035Z,5.80
2018-12-08T08:25:45.584Z,5.90
2018-12-08T08:28:14.204Z,5.80
2018-12-08T08:30:42.777Z,5.90
2018-12-08T08:33:11.391Z,6.00
2018-12-08T08:35:39.951Z,6.00
2018-12-08T08:38:08.571Z,5.90
2018-12-08T08:40:37.332Z,6.00
2018-12-08T08:43:06.174Z,6.00
2018-12-08T08:45:34.759Z,5.90
2018-12-08T08:48:03.387Z,5.90
2018-12-08T08:50:32.015Z,5.90
2018-12-08T08:53:02.708Z,6.00
2018-12-08T08:55:31.273Z,5.90
2018-12-08T08:57:59.976Z,5.90
2018-12-08T09:00:28.592Z,5.90
2018-12-08T09:02:57.308Z,5.90
2018-12-08T09:05:26.021Z,6.00
2018-12-08T09:07:54.610Z,6.00
2018-12-08T09:10:23.183Z,6.00
2018-12-08T09:12:51.770Z,6.00
2018-12-08T09:15:20.801Z,6.10
2018-12-08T09:17:49.407Z,6.10
2018-12-08T09:20:17.969Z,6.20
2018-12-08T09:22:46.559Z,6.20
2018-12-08T09:25:15.123Z,6.20
2018-12-08T09:27:43.850Z,6.20
2018-12-08T09:30:12.768Z,6.20
2018-12-08T09:32:41.392Z,6.20
2018-12-08T09:35:10.112Z,6.20
2018-12-08T09:37:38.776Z,6.30
2018-12-08T09:40:08.079Z,6.20
2018-12-08T09:42:36.683Z,6.30
2018-12-08T09:45:05.696Z,6.30
2018-12-08T09:47:34.312Z,6.40
2018-12-08T09:50:02.956Z,6.40
2018-12-08T09:52:31.568Z,6.60
2018-12-08T09:55:00.133Z,6.50
2018-12-08T09:57:28.719Z,6.50
2018-12-08T09:59:57.323Z,6.60
2018-12-08T10:02:26.054Z,6.60
2018-12-08T10:04:54.623Z,6.60
2018-12-08T10:07:23.199Z,6.60
2018-12-08T10:09:51.791Z,6.60
2018-12-08T10:12:20.389Z,6.60
2018-12-08T10:14:48.967Z,6.60
2018-12-08T10:17:17.561Z,6.60
2018-12-08T10:19:46.132Z,6.60
2018-12-08T10:22:14.738Z,6.60
2018-12-08T10:24:43.316Z,6.60
2018-12-08T10:27:12.066Z,6.70
2018-12-08T10:29:40.659Z,6.70
2018-12-08T10:32:09.371Z,6.70
2018-12-08T10:34:37.980Z,6.70
2018-12-08T10:37:06.631Z,6.80
2018-12-08T10:39:35.375Z,6.90
2018-12-08T10:42:04.236Z,6.90
2018-12-08T10:44:32.960Z,6.90
2018-12-08T10:47:02.441Z,6.90
2018-12-08T10:49:31.052Z,6.90
2018-12-08T10:51:59.828Z,6.90
2018-12-08T10:54:28.400Z,6.90
2018-12-08T10:56:57.002Z,6.90
2018-12-08T10:59:25.568Z,7.00
2018-12-08T11:02:01.583Z,7.00
2018-12-08T11:04:30.453Z,7.10
2018-12-08T11:06:59.048Z,7.10
2018-12-08T11:09:27.621Z,7.00
2018-12-08T11:11:56.231Z,6.90
2018-12-08T11:14:24.795Z,6.80
2018-12-08T11:16:53.380Z,6.90
2018-12-08T11:19:21.979Z,7.00
2018-12-08T11:21:50.567Z,7.00
2018-12-08T11:24:19.115Z,6.90
2018-12-08T11:26:47.693Z,6.80
2018-12-08T11:29:16.274Z,6.70
2018-12-08T11:31:44.896Z,6.70
2018-12-08T11:34:13.484Z,6.60
2018-12-08T11:36:49.309Z,6.50
2018-12-08T11:39:12.711Z,6.40
2018-12-08T11:41:41.754Z,6.30
2018-12-08T11:44:10.448Z,6.20
2018-12-08T11:46:40.020Z,6.20
2018-12-08T11:49:08.640Z,6.10
2018-12-08T11:51:37.415Z,6.00
2018-12-08T11:54:05.996Z,6.00
2018-12-08T11:56:34.603Z,6.00
2018-12-08T11:59:03.500Z,6.00
2018-12-08T12:01:32.106Z,6.00
2018-12-08T12:04:00.708Z,6.10
2018-12-08T12:06:29.309Z,6.20
2018-12-08T12:08:57.879Z,6.50
2018-12-08T12:11:26.484Z,6.80
2018-12-08T12:13:55.040Z,7.10
2018-12-08T12:16:23.639Z,7.20
2018-12-08T12:18:52.248Z,7.10
2018-12-08T12:21:20.852Z,7.00
2018-12-08T12:23:49.448Z,7.20
2018-12-08T12:26:18.082Z,7.20
2018-12-08T12:28:46.642Z,7.10
2018-12-08T12:31:15.222Z,7.00
2018-12-08T12:33:43.781Z,6.90
2018-12-08T12:36:12.383Z,6.80
2018-12-08T12:38:40.939Z,6.70
2018-12-08T12:41:09.538Z,6.70
2018-12-08T12:43:38.137Z,6.80
2018-12-08T12:46:06.842Z,6.80
2018-12-08T12:48:35.414Z,6.80
2018-12-08T12:51:04.317Z,6.70
2018-12-08T12:53:32.888Z,6.60
2018-12-08T12:56:01.464Z,6.50
2018-12-08T12:58:30.033Z,6.50
2018-12-08T13:00:58.633Z,6.50
2018-12-08T13:03:27.195Z,6.50
2018-12-08T13:05:55.770Z,6.40
2018-12-08T13:08:24.320Z,6.40
2018-12-08T13:10:52.911Z,6.40
2018-12-08T13:13:21.470Z,6.50
2018-12-08T13:15:50.063Z,6.50
2018-12-08T13:18:18.614Z,6.50
2018-12-08T13:20:47.234Z,6.50
2018-12-08T13:23:15.832Z,6.50
2018-12-08T13:25:44.444Z,6.40
2018-12-08T13:28:13.019Z,6.40
2018-12-08T13:30:41.618Z,6.30
2018-12-08T13:33:10.186Z,6.20
2018-12-08T13:35:56.318Z,6.20
2018-12-08T13:38:24.919Z,6.10
2018-12-08T13:40:53.742Z,6.10
2018-12-08T13:43:22.347Z,6.10
2018-12-08T13:45:51.111Z,6.10
2018-12-08T13:48:21.767Z,6.00
2018-12-08T13:50:50.876Z,6.00
2018-12-08T13:53:19.463Z,6.00
2018-12-08T13:55:48.077Z,6.00
2018-12-08T13:58:16.803Z,6.10
2018-12-08T14:00:45.487Z,6.10
2018-12-08T14:03:14.083Z,6.10
2018-12-08T14:05:42.684Z,6.10
2018-12-08T14:08:11.315Z,6.10
2018-12-08T14:10:39.951Z,6.10
2018-12-08T14:13:08.535Z,6.10
2018-12-08T14:15:37.124Z,6.10
2018-12-08T14:18:05.715Z,6.20
2018-12-08T14:20:34.978Z,6.10
2018-12-08T14:23:04.351Z,6.40
2018-12-08T14:25:32.933Z,6.80
2018-12-08T14:28:01.640Z,6.50
2018-12-08T14:30:30.263Z,6.50
2018-12-08T14:32:58.820Z,6.20
2018-12-08T14:35:27.424Z,6.10
2018-12-08T14:37:55.987Z,6.20
2018-12-08T14:40:24.590Z,6.60
2018-12-08T14:42:53.190Z,6.50
2018-12-08T14:45:24.514Z,6.40
2018-12-08T14:47:53.069Z,6.50
2018-12-08T14:50:21.816Z,6.50
2018-12-08T14:52:50.394Z,6.40
2018-12-08T14:55:18.974Z,6.30
2018-12-08T14:57:47.569Z,6.30
2018-12-08T15:00:16.139Z,6.30
2018-12-08T15:02:44.744Z,6.30
2018-12-08T15:05:13.487Z,6.30
2018-12-08T15:07:42.117Z,6.20
2018-12-08T15:10:12.296Z,6.20
2018-12-08T15:12:40.902Z,6.20
2018-12-08T15:15:10.724Z,6.20
2018-12-08T15:17:39.315Z,6.20
2018-12-08T15:20:09.183Z,6.30
2018-12-08T15:22:37.979Z,6.30
2018-12-08T15:25:08.475Z,6.30
2018-12-08T15:27:37.271Z,6.20
2018-12-08T15:30:07.644Z,6.20
2018-12-08T15:32:36.245Z,6.10
2018-12-08T15:35:06.419Z,6.10
2018-12-08T15:37:34.989Z,6.00
2018-12-08T15:40:04.568Z,5.90
2018-12-08T15:42:33.157Z,5.90
2018-12-08T15:45:02.033Z,5.90
2018-12-08T15:47:30.691Z,5.90
2018-12-08T15:49:59.269Z,5.90
2018-12-08T15:52:27.990Z,5.90
2018-12-08T15:54:56.595Z,6.00
2018-12-08T15:57:25.147Z,6.00
2018-12-08T15:59:53.824Z,6.00
2018-12-08T16:02:24.119Z,6.10
2018-12-08T16:04:52.915Z,6.10
2018-12-08T16:07:21.635Z,6.10
2018-12-08T16:09:50.251Z,6.10
2018-12-08T16:12:18.868Z,6.10
2018-12-08T16:14:47.445Z,6.20
2018-12-08T16:17:15.991Z,6.20
2018-12-08T16:19:44.604Z,6.20
2018-12-08T16:22:13.151Z,6.20
2018-12-08T16:24:41.736Z,6.30
2018-12-08T16:27:10.324Z,6.30
2018-12-08T16:29:38.927Z,6.30
2018-12-08T16:32:07.483Z,6.30
2018-12-08T16:34:36.072Z,6.40
2018-12-08T16:37:04.772Z,6.40
2018-12-08T16:39:33.344Z,6.30
2018-12-08T16:42:02.313Z,6.40
2018-12-08T16:51:32.021Z,6.50
2018-12-08T16:54:00.658Z,6.50
2018-12-08T16:56:29.398Z,6.50
2018-12-08T16:58:58.006Z,6.60
2018-12-08T17:01:26.629Z,6.60
2018-12-08T17:03:55.234Z,6.60
2018-12-08T17:06:23.855Z,6.60
2018-12-08T17:08:52.454Z,6.60
2018-12-08T17:11:21.150Z,6.70
2018-12-08T17:13:49.764Z,6.60
2018-12-08T17:16:18.376Z,6.70
2018-12-08T17:18:46.965Z,6.70
2018-12-08T17:21:15.582Z,6.70
2018-12-08T17:23:44.186Z,6.80
2018-12-08T17:26:12.958Z,6.80
2018-12-08T17:28:41.599Z,6.80
2018-12-08T17:31:10.216Z,6.80
2018-12-08T17:33:38.797Z,6.80
2018-12-08T17:36:07.571Z,6.80
2018-12-08T17:38:36.164Z,6.70
2018-12-08T17:41:04.895Z,6.70
2018-12-08T17:43:35.475Z,6.70
2018-12-08T17:46:04.140Z,6.60
2018-12-08T17:48:33.116Z,6.70
2018-12-08T17:51:01.827Z,6.60
2018-12-08T17:53:30.436Z,6.60
2018-12-08T17:55:58.995Z,6.60
2018-12-08T17:58:27.575Z,6.60
2018-12-08T18:00:56.154Z,6.60
2018-12-08T18:03:24.748Z,6.60
2018-12-08T18:05:53.323Z,6.60
2018-12-08T18:08:21.962Z,6.50
2018-12-08T18:10:50.561Z,6.50
2018-12-08T18:13:19.187Z,6.50
2018-12-08T18:15:47.772Z,6.50
2018-12-08T18:18:16.337Z,6.50
2018-12-08T18:20:45.068Z,6.50
2018-12-08T18:23:13.643Z,6.50
2018-12-08T18:25:42.267Z,6.40
2018-12-08T18:28:20.804Z,6.40
2018-12-08T18:30:49.373Z,6.30
2018-12-08T18:33:17.964Z,6.20
2018-12-08T18:35:46.551Z,6.10
2018-12-08T18:38:15.136Z,6.00
2018-12-08T18:40:43.695Z,6.00
2018-12-08T18:43:12.309Z,6.00
2018-12-08T18:45:40.886Z,5.90
2018-12-08T18:48:09.663Z,6.00
2018-12-08T18:50:38.271Z,6.00
2018-12-08T18:53:08.334Z,6.00
2018-12-08T18:55:37.572Z,6.00
2018-12-08T18:58:06.170Z,6.00
2018-12-08T19:00:34.896Z,6.00
2018-12-08T19:03:04.463Z,6.10
2018-12-08T19:05:33.028Z,6.10
2018-12-08T19:08:01.647Z,6.10
2018-12-08T19:10:30.236Z,6.00
2018-12-08T19:12:58.820Z,6.00
2018-12-08T19:15:27.510Z,6.00
2018-12-08T19:17:56.132Z,6.00
2018-12-08T19:20:24.789Z,6.00
2018-12-08T19:22:53.395Z,6.00
2018-12-08T19:25:22.060Z,6.10
2018-12-08T19:27:50.655Z,6.00
2018-12-08T19:30:19.252Z,6.10
2018-12-08T19:32:47.848Z,6.10
2018-12-08T19:35:16.444Z,6.20
2018-12-08T19:37:45.043Z,6.20
2018-12-08T19:40:13.703Z,6.20
2018-12-08T19:42:42.289Z,6.20
2018-12-08T19:45:10.895Z,6.20
2018-12-08T19:47:39.565Z,6.20
2018-12-08T19:50:08.370Z,6.20
2018-12-08T19:52:37.019Z,6.30
2018-12-08T19:55:05.880Z,6.30
2018-12-08T19:57:34.592Z,6.40
2018-12-08T20:00:04.565Z,6.40
2018-12-08T20:02:33.336Z,6.40
2018-12-08T20:05:02.092Z,6.50
2018-12-08T20:07:30.671Z,6.50
2018-12-08T20:09:59.267Z,6.60
2018-12-08T20:12:27.856Z,6.60
2018-12-08T20:14:56.468Z,6.60
2018-12-08T20:17:25.060Z,6.70
2018-12-08T20:19:53.682Z,6.80
2018-12-08T20:22:22.256Z,6.90
2018-12-08T20:24:50.841Z,6.80
2018-12-08T20:27:19.430Z,6.90
2018-12-08T20:29:48.019Z,7.00
2018-12-08T20:32:16.607Z,7.00
2018-12-08T20:34:45.204Z,7.00
2018-12-08T20:37:13.811Z,6.90
2018-12-08T20:39:42.407Z,6.90
2018-12-08T20:42:11.044Z,6.90
2018-12-08T20:44:40.251Z,6.90
2018-12-08T20:47:08.824Z,6.90
2018-12-08T20:49:37.433Z,6.90
2018-12-08T20:52:06.072Z,6.90
2018-12-08T20:54:34.682Z,6.90
2018-12-08T20:57:03.423Z,6.80
2018-12-08T20:59:32.038Z,6.80
2018-12-08T21:02:00.614Z,6.90
2018-12-08T21:04:29.574Z,6.90
2018-12-08T21:06:58.152Z,6.90
2018-12-08T21:09:26.764Z,6.90
2018-12-08T21:11:55.330Z,6.90
2018-12-08T21:14:23.940Z,6.80
2018-12-08T21:16:52.547Z,6.80
2018-12-08T21:19:21.263Z,6.70
2018-12-08T21:21:49.834Z,6.70
2018-12-08T21:24:18.428Z,6.70
2018-12-08T21:26:47.081Z,6.60
2018-12-08T21:29:15.676Z,6.50
2018-12-08T21:31:44.263Z,6.40
2018-12-08T21:34:12.864Z,6.40
2018-12-08T21:36:41.446Z,6.30
2018-12-08T21:39:10.066Z,6.30
2018-12-08T21:41:38.687Z,6.30
2018-12-08T21:44:07.929Z,6.20
2018-12-08T21:46:36.692Z,6.20
2018-12-08T21:49:05.323Z,6.20
2018-12-08T21:51:33.936Z,6.20
2018-12-08T21:54:02.573Z,6.20
2018-12-08T21:56:31.147Z,6.30
2018-12-08T21:58:59.764Z,6.30
2018-12-08T22:01:28.350Z,6.30
2018-12-08T22:03:56.954Z,6.30
2018-12-08T22:06:25.527Z,6.30
2018-12-08T22:08:54.118Z,6.30
2018-12-08T22:11:22.691Z,6.20
2018-12-08T22:13:51.277Z,6.30
2018-12-08T22:16:19.880Z,6.40
2018-12-08T22:18:48.488Z,6.40
2018-12-08T22:21:17.062Z,6.40
2018-12-08T22:23:45.673Z,6.50
2018-12-08T22:26:14.258Z,6.50
2018-12-08T22:28:42.839Z,6.50
2018-12-08T22:31:11.428Z,6.50
2018-12-08T22:33:40.009Z,6.50
2018-12-08T22:36:08.580Z,6.50
2018-12-08T22:38:37.188Z,6.50
2018-12-08T22:41:05.759Z,6.50
2018-12-08T22:43:34.368Z,6.50
2018-12-08T22:46:02.946Z,6.50
2018-12-08T22:48:31.543Z,6.40
2018-12-08T22:51:00.095Z,6.40
2018-12-08T22:53:28.698Z,6.40
2018-12-08T22:55:57.255Z,6.30
2018-12-08T22:58:25.831Z,6.30
2018-12-08T23:00:54.658Z,6.30
2018-12-08T23:03:23.269Z,6.30
2018-12-08T23:05:51.869Z,6.20
2018-12-08T23:08:21.799Z,6.30
2018-12-08T23:10:50.388Z,6.30
2018-12-08T23:13:19.114Z,6.30
2018-12-08T23:15:47.755Z,6.30
2018-12-08T23:18:16.475Z,6.40
2018-12-08T23:20:45.043Z,6.40
2018-12-08T23:23:13.644Z,6.40
2018-12-08T23:25:42.243Z,6.50
2018-12-08T23:28:10.968Z,6.50
2018-12-08T23:30:39.679Z,6.50
2018-12-08T23:33:08.271Z,6.50
2018-12-08T23:35:36.854Z,6.50
2018-12-08T23:38:05.461Z,6.50
2018-12-08T23:40:34.045Z,6.60
2018-12-08T23:43:03.342Z,6.50
2018-12-08T23:45:32.321Z,6.60
2018-12-08T23:48:01.089Z,6.60
2018-12-08T23:50:29.674Z,6.70
2018-12-08T23:52:58.303Z,6.60
2018-12-08T23:55:26.954Z,6.60
2018-12-08T23:57:55.570Z,6.60
